Aérodrome :
LOGIN :

S'inscrire | Disclaimer

   EN    FR    IT 

 










Légende :    VFR   VFR Marginal   IFR   IFR Intensif   IFR Très Intensif
Visi : 
Plafond : 
>= 8 km
>= 3000ft
5 à 8 km
1000 à 3000 ft
1500m à 5 km
500 à 1000 ft
800 à 1500m
200 à 500 ft
< 800m
< 200 ft
Symboles :   Orages  Brouillard  Fortes neiges  Fortes précipitations  Vent > 20 kt
SIGMETs :   Divers  Orages  Givrage  Turbulence  Onde Orograph.  Cendres Volcan.







- Altitude de l'aérodrome : 84 ft
- Voir les cartes d'approche


LFBC - Cazaux

DERNIER METAR :
  • 211700Z AUTO 32011KT CAVOK 27/16 Q1015

METARs EXPIRÉS :
  • 211630Z AUTO 31013KT CAVOK 28/16 Q1015
  • 211600Z AUTO 32011KT 280V340 CAVOK 29/16 Q1015 NOSIG
  • 211530Z AUTO 32012KT CAVOK 29/16 Q1016 NOSIG
  • 211500Z AUTO 30012KT CAVOK 29/15 Q1016 NOSIG
  • 211430Z AUTO 30011KT 260V340 CAVOK 30/15 Q1016 NOSIG

TAF AMD TAF LFBC
Valide du 21 à 04h jusqu'au 22 à 03h UTC


210415Z 2104/2203 35006KT CAVOK
PROB40 2104/2106 0800 FG
BECMG 2112/2114 32010G20KT
BECMG 2120/2122 01004KT
Pas de NOTAMs connus pour ce terrain.



MET'MAP, la Météo Aéronautique d'un coup d'oeil ! - Copyright ORBIFLY Décembre 2007 - Disclaimer

ORBIFLY MET'MAP TEAM :

Programmation & Développement : Alexandra Zaïnal
Conception & Développement : Baudouin d'Aumeries
Co-Programmation & Développement : Marc-Olivier Méhu
Soutien technique & logistique : Manuel Goepfert

Contact : metmap@orbifly.com




SOURCES & CREDITS :

   NOAA